Saturday, March 28, 2015
16:05 UTC
  |  Log In   |  Register Free
Airport Search:

Lenawee County Airport
(KADG)

Lenawee County Airport Diagram
No Airport Diagram Available

FAA data valid effective March 05, 2015 - April 30, 2015 (unless otherwise noted).

 
 
 
 
 
 
 
 
 
 
 
 
 
 

Current Aviation Weather for Lenawee County Airport (KADG)

The most recent METAR observation for KADG was updated at: 1407
METAR Summary (Translated METAR)
KADG
251353Z AUTO 20006KT 1 1/2SM BR OVC005 04/03 A2983 RMK AO2 RAE15 CIG 003V008 SLP112 P0000 T00390033 TSNO
KUSE
251355Z AUTO 19009G14KT 2 1/2SM BR FEW006 OVC011 06/06 A2983 RMK AO2
(15.6 nm SW from KADG)
KDUH
251354Z AUTO 18008G15KT 3SM BR SCT006 SCT013 OVC021 07/05 A2984 RMK AO2
(20.5 nm SE from KADG)
TAF
No TAF information found within 50 nm of KADG
  Airport Weather Conditions for KADG

 Current Weather at ADG
25° F
Fair
North winds at 11.5 mph
ADG NOAA Radar

Pressure: 30.30 in
Humidity: 50%
Wind: North at 11.5 MPH (10 KT)
Dew Point: 9.0°F
Visibility: 10.00 mi


Airport Weather Forecast for KADG

Translated METAR and TAF for KADG
Translated METAR for KADG (1604 UTC 28 March 2015)
found at http://aviationweather.gov/adds/metars/
 
METAR text: KADG 281553Z AUTO 03009KT 10SM CLR M03/M12 A3029 RMK AO2 SLP272 T10281122 TSNO
Conditions at: KADG (ADRIAN , MI, US) observed 1553 UTC 28 March 2015
Temperature: -2.8°C (27°F)
Dewpoint: -12.2°C (10°F) [RH = 48%]
Pressure (altimeter): 30.29 inches Hg (1025.8 mb)
[Sea-level pressure: 1027.2 mb]
Winds: from the NNE (30 degrees) at 10 MPH (9 knots; 4.7 m/s)
Visibility: 10 or more miles (16+ km)
Ceiling: at least 12,000 feet AGL
Clouds: sky clear below 12,000 feet AGL
Weather: automated observation with no human augmentation;
there may or may not be significant weather present at this time
Translated TAF for KADG

There is no translated TAF available for this airport

Find All Airport Services Find A Hotel Find A Rental Car Find A Golf Course Find A Restaurant $100 Hamburger



FBO's on the Field
FBO Company Facility Photos Services Transportation Aviation Fuel Prices: Prices include tax
Catering Weather Repair Courtesy Rental Type 100LL JetA JetA+ MOGAS 8087
 
Lenawee County Airport

This FBO has not yet been rated
FS:Avfuel
Last Updated: Mar-24
Login to update fuel prices
SS:
Contact Lenawee County AirportMore FBO Information
 
Add another FBO Facility Photos Catering Weather Repair Courtesy Rental Type 100LL JetA JetA+ MOGAS 8087
Services Transportation Aviation Fuel Prices: Prices include tax


model-print
model-print
model-print
model-print